createdAt,value
2017-06-21T00:02:18.176Z,20.20
2017-06-21T00:04:45.725Z,20.20
2017-06-21T00:07:13.259Z,20.10
2017-06-21T00:09:41.213Z,20.00
2017-06-21T00:12:08.763Z,20.10
2017-06-21T00:14:36.309Z,20.00
2017-06-21T00:17:03.841Z,20.00
2017-06-21T00:19:31.383Z,20.00
2017-06-21T00:21:58.899Z,19.90
2017-06-21T00:24:26.433Z,19.90
2017-06-21T00:26:53.993Z,19.90
2017-06-21T00:29:21.532Z,19.90
2017-06-21T00:31:49.090Z,19.90
2017-06-21T00:34:16.617Z,19.80
2017-06-21T00:36:44.157Z,19.80
2017-06-21T00:39:11.693Z,19.80
2017-06-21T00:41:39.249Z,19.70
2017-06-21T00:44:06.781Z,19.70
2017-06-21T00:46:34.314Z,19.70
2017-06-21T00:49:01.858Z,19.70
2017-06-21T00:51:29.782Z,19.60
2017-06-21T00:53:57.327Z,19.70
2017-06-21T00:56:24.854Z,19.60
2017-06-21T00:58:52.388Z,19.60
2017-06-21T01:01:19.903Z,19.60
2017-06-21T01:03:47.465Z,19.50
2017-06-21T01:06:15.004Z,19.50
2017-06-21T01:08:42.532Z,19.40
2017-06-21T01:11:10.473Z,19.30
2017-06-21T01:13:38.005Z,19.40
2017-06-21T01:16:05.550Z,19.30
2017-06-21T01:18:33.089Z,19.20
2017-06-21T01:21:00.634Z,19.20
2017-06-21T01:23:28.169Z,19.20
2017-06-21T01:25:56.147Z,19.10
2017-06-21T01:28:23.678Z,19.10
2017-06-21T01:30:51.208Z,19.10
2017-06-21T01:33:18.764Z,19.10
2017-06-21T01:35:46.305Z,19.00
2017-06-21T01:38:13.855Z,19.00
2017-06-21T01:40:41.388Z,19.00
2017-06-21T01:43:09.346Z,18.90
2017-06-21T01:45:36.867Z,18.90
2017-06-21T01:48:04.429Z,18.90
2017-06-21T01:50:31.959Z,18.90
2017-06-21T01:52:59.492Z,18.90
2017-06-21T01:55:27.041Z,18.90
2017-06-21T01:57:54.577Z,18.80
2017-06-21T02:00:22.132Z,18.80
2017-06-21T02:02:49.660Z,18.80
2017-06-21T02:05:17.213Z,18.70
2017-06-21T02:07:44.741Z,18.70
2017-06-21T02:10:12.310Z,18.60
2017-06-21T02:12:39.847Z,18.60
2017-06-21T02:15:07.374Z,18.70
2017-06-21T02:17:34.907Z,18.60
2017-06-21T02:20:02.446Z,18.50
2017-06-21T02:22:30.003Z,18.50
2017-06-21T02:24:57.540Z,18.50
2017-06-21T02:27:25.089Z,18.50
2017-06-21T02:29:52.612Z,18.50
2017-06-21T02:32:20.173Z,18.50
2017-06-21T02:34:47.708Z,18.50
2017-06-21T02:37:15.245Z,18.50
2017-06-21T02:39:42.818Z,18.40
2017-06-21T02:42:10.361Z,18.40
2017-06-21T02:44:37.921Z,18.30
2017-06-21T02:47:05.457Z,18.30
2017-06-21T02:49:32.999Z,18.30
2017-06-21T02:52:00.553Z,18.30
2017-06-21T02:54:28.101Z,18.30
2017-06-21T02:56:55.629Z,18.30
2017-06-21T02:59:23.165Z,18.30
2017-06-21T03:01:50.722Z,18.20
2017-06-21T03:04:18.249Z,18.20
2017-06-21T03:06:45.791Z,18.10
2017-06-21T03:09:13.321Z,18.10
2017-06-21T03:11:40.881Z,18.10
2017-06-21T03:14:08.413Z,18.00
2017-06-21T03:16:35.970Z,18.00
2017-06-21T03:19:03.509Z,18.00
2017-06-21T03:21:31.046Z,18.00
2017-06-21T03:23:59.106Z,18.00
2017-06-21T03:26:26.649Z,18.00
2017-06-21T03:28:54.205Z,17.90
2017-06-21T03:31:21.741Z,17.90
2017-06-21T03:33:49.289Z,17.80
2017-06-21T03:36:17.222Z,17.90
2017-06-21T03:38:44.789Z,17.90
2017-06-21T03:41:12.326Z,17.80
2017-06-21T03:43:39.875Z,17.80
2017-06-21T03:46:07.425Z,17.80
2017-06-21T03:48:35.070Z,17.90
2017-06-21T03:51:02.620Z,17.90
2017-06-21T03:53:30.559Z,17.90
2017-06-21T03:55:58.104Z,18.00
2017-06-21T03:58:25.653Z,17.90
2017-06-21T04:00:53.208Z,17.90
2017-06-21T04:03:20.734Z,17.90
2017-06-21T04:05:48.272Z,17.90
2017-06-21T04:08:15.828Z,17.90
2017-06-21T04:10:43.757Z,17.90
2017-06-21T04:13:11.301Z,18.00
2017-06-21T04:15:38.838Z,17.90
2017-06-21T04:18:06.389Z,18.00
2017-06-21T04:20:33.925Z,18.00
2017-06-21T04:23:01.854Z,18.00
2017-06-21T04:25:29.414Z,18.00
2017-06-21T04:27:56.945Z,18.00
2017-06-21T04:30:24.489Z,18.00
2017-06-21T04:32:52.021Z,18.00
2017-06-21T04:35:19.583Z,18.00
2017-06-21T04:37:47.519Z,18.10
2017-06-21T04:40:15.056Z,18.10
2017-06-21T04:42:42.592Z,18.10
2017-06-21T04:45:10.122Z,18.20
2017-06-21T04:47:38.062Z,18.20
2017-06-21T04:50:05.599Z,18.20
2017-06-21T04:52:33.129Z,18.30
2017-06-21T04:55:00.688Z,18.30
2017-06-21T04:57:28.203Z,18.40
2017-06-21T04:59:55.753Z,18.50
2017-06-21T05:02:23.281Z,18.50
2017-06-21T05:04:50.825Z,18.60
2017-06-21T05:07:18.348Z,18.60
2017-06-21T05:09:45.890Z,18.70
2017-06-21T05:12:13.408Z,18.70
2017-06-21T05:14:40.929Z,18.80
2017-06-21T05:17:08.462Z,18.80
2017-06-21T05:19:36.069Z,18.90
2017-06-21T05:22:03.614Z,18.90
2017-06-21T05:24:31.145Z,19.00
2017-06-21T05:26:58.752Z,19.20
2017-06-21T05:29:26.290Z,19.30
2017-06-21T05:31:54.225Z,19.70
2017-06-21T05:34:21.835Z,19.70
2017-06-21T05:36:49.361Z,19.90
2017-06-21T05:39:16.887Z,20.10
2017-06-21T05:41:44.417Z,20.40
2017-06-21T05:44:11.980Z,20.60
2017-06-21T05:46:39.497Z,20.80
2017-06-21T05:49:07.021Z,21.00
2017-06-21T05:51:34.559Z,21.20
2017-06-21T05:54:02.120Z,21.30
2017-06-21T05:56:29.676Z,21.50
2017-06-21T05:58:57.213Z,21.70
2017-06-21T06:01:24.787Z,21.80
2017-06-21T06:03:52.328Z,22.00
2017-06-21T06:06:19.873Z,22.10
2017-06-21T06:08:47.424Z,22.30
2017-06-21T06:11:14.953Z,22.40
2017-06-21T06:13:42.505Z,22.50
2017-06-21T06:16:10.032Z,22.60
2017-06-21T06:18:37.585Z,22.80
2017-06-21T06:21:09.525Z,22.80
2017-06-21T06:23:37.476Z,23.00
2017-06-21T06:26:05.409Z,23.10
2017-06-21T06:28:32.940Z,23.10
2017-06-21T06:31:01.110Z,23.20
2017-06-21T06:33:29.686Z,23.30
2017-06-21T06:35:57.230Z,23.40
2017-06-21T06:38:24.748Z,23.50
2017-06-21T06:40:52.284Z,23.60
2017-06-21T06:43:19.801Z,23.80
2017-06-21T06:45:47.727Z,24.00
2017-06-21T06:48:15.266Z,24.00
2017-06-21T06:50:42.799Z,24.10
2017-06-21T06:53:10.329Z,24.30
2017-06-21T06:55:37.852Z,24.40
2017-06-21T06:58:05.407Z,24.50
2017-06-21T07:00:32.920Z,24.60
2017-06-21T07:03:00.868Z,24.80
2017-06-21T07:05:29.098Z,24.80
2017-06-21T07:07:56.656Z,24.90
2017-06-21T07:10:24.192Z,24.90
2017-06-21T07:12:51.730Z,25.00
2017-06-21T07:15:19.693Z,25.20
2017-06-21T07:17:47.212Z,25.20
2017-06-21T07:20:14.745Z,25.30
2017-06-21T07:22:42.273Z,25.30
2017-06-21T07:25:10.212Z,25.50
2017-06-21T07:27:37.734Z,25.50
2017-06-21T07:30:05.334Z,25.60
2017-06-21T07:32:32.865Z,25.70
2017-06-21T07:35:00.386Z,25.70
2017-06-21T07:37:27.936Z,25.80
2017-06-21T07:39:55.493Z,26.00
2017-06-21T07:42:23.437Z,26.20
2017-06-21T07:44:50.969Z,26.20
2017-06-21T07:47:18.531Z,26.20
2017-06-21T07:49:46.052Z,26.30
2017-06-21T07:52:13.579Z,26.40
2017-06-21T07:54:41.530Z,26.80
2017-06-21T07:57:09.055Z,26.70
2017-06-21T07:59:36.609Z,26.90
2017-06-21T08:02:04.119Z,26.90
2017-06-21T08:04:31.691Z,26.90
2017-06-21T08:06:59.608Z,27.00
2017-06-21T08:09:27.161Z,27.00
2017-06-21T08:11:54.697Z,27.10
2017-06-21T08:14:22.229Z,27.20
2017-06-21T08:16:50.170Z,27.50
2017-06-21T08:19:17.707Z,27.50
2017-06-21T08:21:45.270Z,27.50
2017-06-21T08:24:12.795Z,27.50
2017-06-21T08:26:40.349Z,27.60
2017-06-21T08:29:07.879Z,27.50
2017-06-21T08:31:35.429Z,27.50
2017-06-21T08:34:02.954Z,27.50
2017-06-21T08:36:31.503Z,27.50
2017-06-21T08:38:59.058Z,27.70
2017-06-21T08:41:26.581Z,27.80
2017-06-21T08:43:54.125Z,27.80
2017-06-21T08:46:21.649Z,27.80
2017-06-21T08:48:49.193Z,27.70
2017-06-21T08:51:16.729Z,27.80
2017-06-21T08:53:44.295Z,27.90
2017-06-21T08:56:12.216Z,28.10
2017-06-21T08:58:39.739Z,28.10
2017-06-21T09:01:07.279Z,28.10
2017-06-21T09:03:35.201Z,28.20
2017-06-21T09:06:02.741Z,28.20
2017-06-21T09:08:31.444Z,28.30
2017-06-21T09:10:59.623Z,28.40
2017-06-21T09:13:27.146Z,28.40
2017-06-21T09:15:54.702Z,28.40
2017-06-21T09:18:22.230Z,28.30
2017-06-21T09:20:50.157Z,28.40
2017-06-21T09:23:17.705Z,28.40
2017-06-21T09:25:45.230Z,28.40
2017-06-21T09:28:12.771Z,28.60
2017-06-21T09:30:40.301Z,28.80
2017-06-21T09:33:07.910Z,28.80
2017-06-21T09:35:35.438Z,28.70
2017-06-21T09:38:03.002Z,28.70
2017-06-21T09:40:30.914Z,28.70
2017-06-21T09:42:58.435Z,28.70
2017-06-21T09:45:26.381Z,29.00
2017-06-21T09:47:53.909Z,29.00
2017-06-21T09:50:21.465Z,29.00
2017-06-21T09:52:48.994Z,28.90
2017-06-21T09:55:16.536Z,28.70
2017-06-21T09:57:44.456Z,28.70
2017-06-21T10:00:12.007Z,28.70
2017-06-21T10:02:39.537Z,28.70
2017-06-21T10:05:07.061Z,28.70
2017-06-21T10:07:34.610Z,28.70
2017-06-21T10:10:02.142Z,28.90
2017-06-21T10:12:29.704Z,29.00
2017-06-21T10:14:57.221Z,29.20
2017-06-21T10:17:24.768Z,29.30
2017-06-21T10:19:52.695Z,29.40
2017-06-21T10:22:20.246Z,29.40
2017-06-21T10:24:47.774Z,29.40
2017-06-21T10:27:15.300Z,29.40
2017-06-21T10:29:43.249Z,29.50
2017-06-21T10:32:10.842Z,29.50
2017-06-21T10:34:38.386Z,29.50
2017-06-21T10:37:06.302Z,29.70
2017-06-21T10:39:33.835Z,29.70
2017-06-21T10:42:01.377Z,29.70
2017-06-21T10:44:29.341Z,30.00
2017-06-21T10:46:56.914Z,30.00
2017-06-21T10:49:24.449Z,30.20
2017-06-21T10:51:52.402Z,30.20
2017-06-21T10:54:19.931Z,30.20
2017-06-21T10:56:47.502Z,30.20
2017-06-21T10:59:15.036Z,30.30
2017-06-21T11:01:42.581Z,30.40
2017-06-21T11:04:10.104Z,30.40
2017-06-21T11:06:37.684Z,30.30
2017-06-21T11:09:05.209Z,30.40
2017-06-21T11:11:32.730Z,30.50
2017-06-21T11:14:01.529Z,30.50
2017-06-21T11:16:29.074Z,30.40
2017-06-21T11:18:56.621Z,30.40
2017-06-21T11:21:24.205Z,30.40
2017-06-21T11:23:51.789Z,30.40
2017-06-21T11:26:19.309Z,30.40
2017-06-21T11:28:46.861Z,30.40
2017-06-21T11:31:14.381Z,30.40
2017-06-21T11:33:42.310Z,30.30
2017-06-21T11:36:09.858Z,30.30
2017-06-21T11:38:37.381Z,30.50
2017-06-21T11:41:04.921Z,30.50
2017-06-21T11:43:32.849Z,30.80
2017-06-21T11:46:00.407Z,30.80
2017-06-21T11:48:27.933Z,30.80
2017-06-21T11:50:55.507Z,30.80
2017-06-21T11:53:23.120Z,30.70
2017-06-21T11:55:50.639Z,30.60
2017-06-21T11:58:18.163Z,30.70
2017-06-21T12:00:45.688Z,30.90
2017-06-21T12:03:13.219Z,30.80
2017-06-21T12:05:40.751Z,30.90
2017-06-21T12:08:08.298Z,30.80
2017-06-21T12:10:35.821Z,30.80
2017-06-21T12:13:03.395Z,30.90
2017-06-21T12:15:31.352Z,30.90
2017-06-21T12:17:58.884Z,31.00
2017-06-21T12:20:26.429Z,30.90
2017-06-21T12:22:53.947Z,30.90
2017-06-21T12:25:21.526Z,30.90
2017-06-21T12:27:49.069Z,30.90
2017-06-21T12:30:16.623Z,30.80
2017-06-21T12:32:44.146Z,30.80
2017-06-21T12:35:11.703Z,30.90
2017-06-21T12:37:39.235Z,31.00
2017-06-21T12:40:06.774Z,31.20
2017-06-21T12:42:34.317Z,31.20
2017-06-21T12:45:01.857Z,31.00
2017-06-21T12:47:31.094Z,30.80
2017-06-21T12:49:59.166Z,30.80
2017-06-21T12:52:26.709Z,30.90
2017-06-21T12:54:54.233Z,31.10
2017-06-21T12:57:21.830Z,31.20
2017-06-21T12:59:49.363Z,31.20
2017-06-21T13:02:16.902Z,31.30
2017-06-21T13:04:44.443Z,31.40
2017-06-21T13:07:11.987Z,31.50
2017-06-21T13:09:39.566Z,31.50
2017-06-21T13:12:07.101Z,31.50
2017-06-21T13:14:34.670Z,31.50
2017-06-21T13:17:02.208Z,31.50
2017-06-21T13:19:29.740Z,31.40
2017-06-21T13:21:57.276Z,31.40
2017-06-21T13:24:25.214Z,31.30
2017-06-21T13:26:52.768Z,31.30
2017-06-21T13:29:20.404Z,31.20
2017-06-21T13:31:47.946Z,31.20
2017-06-21T13:34:15.476Z,31.00
2017-06-21T13:36:43.430Z,30.80
2017-06-21T13:39:10.968Z,30.80
2017-06-21T13:41:38.578Z,30.80
2017-06-21T13:44:06.148Z,31.00
2017-06-21T13:46:33.676Z,31.10
2017-06-21T13:49:01.621Z,31.20
2017-06-21T13:51:29.174Z,31.20
2017-06-21T13:53:56.721Z,31.00
2017-06-21T13:56:24.243Z,31.00
2017-06-21T13:58:51.801Z,30.70
2017-06-21T14:01:19.332Z,30.60
2017-06-21T14:03:46.862Z,30.60
2017-06-21T14:06:14.421Z,30.70
2017-06-21T14:08:41.956Z,30.80
2017-06-21T14:11:09.515Z,30.90
2017-06-21T14:13:37.036Z,30.90
2017-06-21T14:16:04.989Z,31.00
2017-06-21T14:18:32.517Z,31.00
2017-06-21T14:21:00.073Z,31.00
2017-06-21T14:23:27.587Z,30.90
2017-06-21T14:25:55.113Z,30.70
2017-06-21T14:28:22.665Z,30.70
2017-06-21T14:30:50.189Z,30.70
2017-06-21T14:33:17.720Z,30.60
2017-06-21T14:35:45.256Z,30.50
2017-06-21T14:38:13.179Z,30.50
2017-06-21T14:40:40.709Z,30.40
2017-06-21T14:43:08.273Z,30.50
2017-06-21T14:45:35.805Z,30.50
2017-06-21T14:48:03.329Z,30.50
2017-06-21T14:50:30.856Z,30.50
2017-06-21T14:52:58.398Z,30.50
2017-06-21T14:55:25.933Z,30.60
2017-06-21T14:57:53.458Z,30.70
2017-06-21T15:00:21.012Z,30.80
2017-06-21T15:02:48.537Z,30.80
2017-06-21T15:05:16.057Z,30.70
2017-06-21T15:07:44.000Z,30.60
2017-06-21T15:10:11.608Z,30.60
2017-06-21T15:12:39.157Z,30.50
2017-06-21T15:15:07.086Z,30.40
2017-06-21T15:17:34.633Z,30.40
2017-06-21T15:20:02.172Z,30.30
2017-06-21T15:22:29.725Z,30.30
2017-06-21T15:24:57.278Z,30.30
2017-06-21T15:27:24.820Z,30.20
2017-06-21T15:29:52.448Z,30.20
2017-06-21T15:32:20.406Z,30.00
2017-06-21T15:34:47.948Z,30.00
2017-06-21T15:37:15.482Z,30.00
2017-06-21T15:39:43.037Z,30.00
2017-06-21T15:42:10.557Z,30.00
2017-06-21T15:44:39.040Z,30.00
2017-06-21T15:47:06.587Z,30.00
2017-06-21T15:49:34.111Z,29.90
2017-06-21T15:52:01.649Z,29.90
2017-06-21T15:54:29.175Z,30.00
2017-06-21T15:56:57.113Z,30.00
2017-06-21T15:59:24.642Z,30.00
2017-06-21T16:01:52.201Z,30.00
2017-06-21T16:04:19.733Z,30.00
2017-06-21T16:06:47.264Z,30.00
2017-06-21T16:09:14.801Z,30.10
2017-06-21T16:11:42.340Z,30.10
2017-06-21T16:14:09.989Z,30.10
2017-06-21T16:16:37.525Z,30.10
2017-06-21T16:19:05.087Z,30.10
2017-06-21T16:21:32.605Z,30.00
2017-06-21T16:24:00.168Z,30.00
2017-06-21T16:26:27.802Z,29.90
2017-06-21T16:28:55.330Z,29.80
2017-06-21T16:31:22.867Z,29.80
2017-06-21T16:33:50.801Z,29.80
2017-06-21T16:36:18.346Z,29.80
2017-06-21T16:38:45.873Z,29.70
2017-06-21T16:41:13.413Z,29.70
2017-06-21T16:43:41.341Z,29.60
2017-06-21T16:46:08.885Z,29.60
2017-06-21T16:48:36.426Z,29.60
2017-06-21T16:51:03.961Z,29.70
2017-06-21T16:53:31.513Z,29.70
2017-06-21T16:56:00.338Z,29.70
2017-06-21T16:58:27.918Z,29.70
2017-06-21T17:00:55.461Z,29.70
2017-06-21T17:03:23.025Z,29.70
2017-06-21T17:05:50.573Z,29.60
2017-06-21T17:08:18.261Z,29.60
2017-06-21T17:10:45.790Z,29.60
2017-06-21T17:13:13.436Z,29.60
2017-06-21T17:15:40.973Z,29.60
2017-06-21T17:18:08.958Z,29.50
2017-06-21T17:20:36.498Z,29.60
2017-06-21T17:23:04.423Z,29.40
2017-06-21T17:25:31.965Z,29.40
2017-06-21T17:27:59.494Z,29.30
2017-06-21T17:30:27.030Z,29.40
2017-06-21T17:32:54.978Z,29.30
2017-06-21T17:35:22.517Z,29.30
2017-06-21T17:37:50.080Z,29.30
2017-06-21T17:40:17.607Z,29.30
2017-06-21T17:42:45.163Z,29.30
2017-06-21T17:45:12.687Z,29.30
2017-06-21T17:47:40.629Z,29.20
2017-06-21T17:50:08.170Z,29.20
2017-06-21T17:52:35.732Z,29.10
2017-06-21T17:55:03.264Z,29.00
2017-06-21T17:57:30.784Z,29.00
2017-06-21T17:59:58.333Z,28.90
2017-06-21T18:02:25.870Z,28.80
2017-06-21T18:04:53.408Z,28.80
2017-06-21T18:07:20.935Z,28.70
2017-06-21T18:09:48.476Z,28.70
2017-06-21T18:12:16.407Z,28.60
2017-06-21T18:14:44.047Z,28.70
2017-06-21T18:17:11.562Z,28.60
2017-06-21T18:19:39.501Z,28.40
2017-06-21T18:22:07.040Z,28.40
2017-06-21T18:24:34.565Z,28.40
2017-06-21T18:27:02.109Z,28.30
2017-06-21T18:29:30.049Z,28.10
2017-06-21T18:31:57.668Z,28.20
2017-06-21T18:34:25.195Z,28.00
2017-06-21T18:36:53.154Z,27.90
2017-06-21T18:39:21.086Z,27.80
2017-06-21T18:41:48.615Z,27.80
2017-06-21T18:44:16.159Z,27.80
2017-06-21T18:46:43.685Z,27.70
2017-06-21T18:49:11.330Z,27.60
2017-06-21T18:51:38.855Z,27.50
2017-06-21T18:54:06.410Z,27.50
2017-06-21T18:56:33.941Z,27.50
2017-06-21T18:59:01.885Z,27.30
2017-06-21T19:01:29.446Z,27.30
2017-06-21T19:03:56.964Z,27.20
2017-06-21T19:06:24.545Z,27.10
2017-06-21T19:08:52.261Z,27.10
2017-06-21T19:11:19.803Z,27.00
2017-06-21T19:13:48.365Z,27.00
2017-06-21T19:16:15.925Z,26.90
2017-06-21T19:18:43.550Z,26.90
2017-06-21T19:21:11.105Z,26.80
2017-06-21T19:23:38.766Z,26.70
2017-06-21T19:26:06.287Z,26.70
2017-06-21T19:28:34.216Z,26.60
2017-06-21T19:31:01.754Z,26.60
2017-06-21T19:33:29.488Z,26.50
2017-06-21T19:35:57.021Z,26.50
2017-06-21T19:38:25.071Z,26.40
2017-06-21T19:40:52.720Z,26.40
2017-06-21T19:43:20.343Z,26.30
2017-06-21T19:45:47.897Z,26.30
2017-06-21T19:48:15.453Z,26.30
2017-06-21T19:50:43.026Z,26.20
2017-06-21T19:53:10.539Z,26.20
2017-06-21T19:55:38.528Z,26.10
2017-06-21T19:58:06.541Z,26.10
2017-06-21T20:00:34.106Z,26.10
2017-06-21T20:03:01.637Z,26.00
2017-06-21T20:05:29.305Z,26.00
2017-06-21T20:07:56.833Z,25.90
2017-06-21T20:10:24.456Z,25.90
2017-06-21T20:12:52.090Z,25.80
2017-06-21T20:15:19.691Z,25.80
2017-06-21T20:17:47.294Z,25.70
2017-06-21T20:20:14.825Z,25.60
2017-06-21T20:22:42.388Z,25.60
2017-06-21T20:25:10.379Z,25.50
2017-06-21T20:27:38.403Z,25.40
2017-06-21T20:30:06.500Z,25.40
2017-06-21T20:32:34.036Z,25.40
2017-06-21T20:35:01.837Z,25.30
2017-06-21T20:37:29.369Z,25.20
2017-06-21T20:39:57.180Z,25.20
2017-06-21T20:42:24.725Z,25.20
2017-06-21T20:44:52.406Z,25.10
2017-06-21T20:47:19.927Z,25.10
2017-06-21T20:49:47.489Z,25.00
2017-06-21T20:52:15.013Z,25.00
2017-06-21T20:54:42.549Z,24.90
2017-06-21T20:57:10.983Z,24.90
2017-06-21T20:59:38.538Z,24.90
2017-06-21T21:02:06.080Z,24.80
2017-06-21T21:04:34.000Z,24.70
2017-06-21T21:07:01.545Z,24.70
2017-06-21T21:09:29.104Z,24.70
2017-06-21T21:11:56.660Z,24.60
2017-06-21T21:14:24.175Z,24.50
2017-06-21T21:16:51.698Z,24.50
2017-06-21T21:19:19.247Z,24.40
2017-06-21T21:21:46.790Z,24.40
2017-06-21T21:24:14.330Z,24.30
2017-06-21T21:26:41.859Z,24.30
2017-06-21T21:29:09.806Z,24.20
2017-06-21T21:31:37.361Z,24.30
2017-06-21T21:34:04.886Z,24.20
2017-06-21T21:36:32.426Z,24.10
2017-06-21T21:38:59.953Z,24.10
2017-06-21T21:41:27.501Z,24.10
2017-06-21T21:43:55.029Z,24.10
2017-06-21T21:46:22.540Z,24.10
2017-06-21T21:48:50.076Z,24.10
2017-06-21T21:51:17.597Z,24.00
2017-06-21T21:53:45.139Z,24.00
2017-06-21T21:56:12.661Z,24.00
2017-06-21T21:58:40.619Z,23.90
2017-06-21T22:01:08.142Z,24.00
2017-06-21T22:03:35.659Z,23.90
2017-06-21T22:06:03.588Z,23.90
2017-06-21T22:08:31.115Z,23.90
2017-06-21T22:10:59.199Z,23.80
2017-06-21T22:13:26.764Z,23.80
2017-06-21T22:15:54.313Z,23.70
2017-06-21T22:18:21.841Z,23.70
2017-06-21T22:20:49.397Z,23.60
2017-06-21T22:23:16.941Z,23.60
2017-06-21T22:25:44.874Z,23.50
2017-06-21T22:28:12.430Z,23.60
2017-06-21T22:30:39.959Z,23.50
2017-06-21T22:33:07.495Z,23.40
2017-06-21T22:35:35.026Z,23.40
2017-06-21T22:38:02.576Z,23.40
2017-06-21T22:40:31.354Z,23.40
2017-06-21T22:43:00.021Z,23.30
2017-06-21T22:45:27.550Z,23.30
2017-06-21T22:47:55.081Z,23.30
2017-06-21T22:50:23.007Z,23.10
2017-06-21T22:52:50.543Z,23.10
2017-06-21T22:55:18.081Z,23.00
2017-06-21T22:57:45.612Z,22.90
2017-06-21T23:00:13.147Z,22.80
2017-06-21T23:02:40.676Z,22.70
2017-06-21T23:05:08.221Z,22.60
2017-06-21T23:07:35.746Z,22.60
2017-06-21T23:10:03.259Z,22.50
2017-06-21T23:12:30.802Z,22.40
2017-06-21T23:14:58.339Z,22.40
2017-06-21T23:17:26.268Z,22.30
2017-06-21T23:19:53.772Z,22.40
2017-06-21T23:22:21.318Z,22.30
2017-06-21T23:24:49.238Z,22.20
2017-06-21T23:27:16.780Z,22.20
2017-06-21T23:29:44.309Z,22.20
2017-06-21T23:32:11.841Z,22.10
2017-06-21T23:34:39.386Z,22.10
2017-06-21T23:37:06.946Z,22.10
2017-06-21T23:39:34.517Z,22.10
2017-06-21T23:42:02.050Z,22.10
2017-06-21T23:44:29.601Z,22.10
2017-06-21T23:46:57.134Z,22.10
2017-06-21T23:49:24.702Z,22.10
2017-06-21T23:51:52.221Z,22.10
2017-06-21T23:54:20.140Z,22.10
2017-06-21T23:56:47.671Z,22.10
2017-06-21T23:59:15.199Z,22.10
